sensor_id;sensor_type;location;lat;lon;timestamp;pressure;altitude;pressure_sealevel;temperature;humidity
23166;BME280;11751;42.700;24.170;2023-01-25T00:01:59;95023.91;;;2.42;100.00
23166;BME280;11751;42.700;24.170;2023-01-25T00:04:25;95032.66;;;2.55;100.00
23166;BME280;11751;42.700;24.170;2023-01-25T00:06:51;95037.38;;;2.69;100.00
23166;BME280;11751;42.700;24.170;2023-01-25T00:09:17;95021.16;;;2.62;100.00
23166;BME280;11751;42.700;24.170;2023-01-25T00:11:43;95034.16;;;2.56;100.00
23166;BME280;11751;42.700;24.170;2023-01-25T00:14:10;95032.94;;;2.77;100.00
23166;BME280;11751;42.700;24.170;2023-01-25T00:16:36;95026.69;;;2.62;100.00
23166;BME280;11751;42.700;24.170;2023-01-25T00:19:02;95027.13;;;2.55;100.00
23166;BME280;11751;42.700;24.170;2023-01-25T00:21:28;95034.84;;;2.71;100.00
23166;BME280;11751;42.700;24.170;2023-01-25T00:23:53;95026.50;;;2.65;100.00
23166;BME280;11751;42.700;24.170;2023-01-25T00:26:19;95029.88;;;2.75;100.00
23166;BME280;11751;42.700;24.170;2023-01-25T00:28:49;95035.00;;;2.62;100.00
23166;BME280;11751;42.700;24.170;2023-01-25T00:31:20;95029.75;;;2.64;100.00
23166;BME280;11751;42.700;24.170;2023-01-25T00:33:51;95021.38;;;2.78;100.00
23166;BME280;11751;42.700;24.170;2023-01-25T00:39:27;95026.31;;;2.69;100.00
23166;BME280;11751;42.700;24.170;2023-01-25T00:41:53;95026.84;;;2.73;100.00
23166;BME280;11751;42.700;24.170;2023-01-25T00:44:19;95021.38;;;2.78;100.00
23166;BME280;11751;42.700;24.170;2023-01-25T00:46:44;95021.31;;;2.73;100.00
23166;BME280;11751;42.700;24.170;2023-01-25T00:51:46;95009.56;;;2.58;100.00
23166;BME280;11751;42.700;24.170;2023-01-25T00:54:11;95016.81;;;2.55;100.00
23166;BME280;11751;42.700;24.170;2023-01-25T00:56:37;95018.34;;;2.56;100.00
23166;BME280;11751;42.700;24.170;2023-01-25T00:59:02;95016.22;;;2.66;100.00
23166;BME280;11751;42.700;24.170;2023-01-25T01:01:27;95013.00;;;2.73;100.00
23166;BME280;11751;42.700;24.170;2023-01-25T01:03:53;95011.63;;;2.63;100.00
23166;BME280;11751;42.700;24.170;2023-01-25T01:06:18;95016.06;;;2.55;100.00
23166;BME280;11751;42.700;24.170;2023-01-25T01:08:44;95015.56;;;2.56;100.00
23166;BME280;11751;42.700;24.170;2023-01-25T01:11:11;95009.81;;;2.60;100.00
23166;BME280;11751;42.700;24.170;2023-01-25T01:13:37;95012.19;;;2.67;100.00
23166;BME280;11751;42.700;24.170;2023-01-25T01:16:05;95010.81;;;2.77;100.00
23166;BME280;11751;42.700;24.170;2023-01-25T01:18:34;95010.03;;;2.56;100.00
23166;BME280;11751;42.700;24.170;2023-01-25T01:21:00;95013.22;;;2.50;100.00
23166;BME280;11751;42.700;24.170;2023-01-25T01:23:27;95014.03;;;2.55;100.00
23166;BME280;11751;42.700;24.170;2023-01-25T01:25:53;95012.81;;;2.56;100.00
23166;BME280;11751;42.700;24.170;2023-01-25T01:28:18;95012.94;;;2.67;100.00
23166;BME280;11751;42.700;24.170;2023-01-25T01:30:43;95005.50;;;2.73;100.00
23166;BME280;11751;42.700;24.170;2023-01-25T01:33:09;95016.63;;;2.59;100.00
23166;BME280;11751;42.700;24.170;2023-01-25T01:35:34;95018.81;;;2.35;100.00
23166;BME280;11751;42.700;24.170;2023-01-25T01:38:00;95013.69;;;2.28;100.00
23166;BME280;11751;42.700;24.170;2023-01-25T01:40:25;95011.25;;;2.36;100.00
23166;BME280;11751;42.700;24.170;2023-01-25T01:43:04;95001.75;;;2.56;100.00
23166;BME280;11751;42.700;24.170;2023-01-25T01:48:29;95002.66;;;2.48;100.00
23166;BME280;11751;42.700;24.170;2023-01-25T01:51:03;95000.84;;;2.45;100.00
23166;BME280;11751;42.700;24.170;2023-01-25T01:53:31;95000.69;;;2.34;100.00
23166;BME280;11751;42.700;24.170;2023-01-25T01:55:59;94996.56;;;2.44;100.00
23166;BME280;11751;42.700;24.170;2023-01-25T01:58:26;94990.75;;;2.62;100.00
23166;BME280;11751;42.700;24.170;2023-01-25T02:00:51;94997.94;;;2.54;100.00
23166;BME280;11751;42.700;24.170;2023-01-25T02:03:17;94994.31;;;2.62;100.00
23166;BME280;11751;42.700;24.170;2023-01-25T02:08:18;94985.50;;;2.44;100.00
23166;BME280;11751;42.700;24.170;2023-01-25T02:10:44;94978.19;;;2.41;100.00
23166;BME280;11751;42.700;24.170;2023-01-25T02:13:10;94983.38;;;2.34;100.00
23166;BME280;11751;42.700;24.170;2023-01-25T02:15:40;94981.44;;;2.40;100.00
23166;BME280;11751;42.700;24.170;2023-01-25T02:18:10;94981.22;;;2.43;100.00
23166;BME280;11751;42.700;24.170;2023-01-25T02:20:41;94989.16;;;2.55;100.00
23166;BME280;11751;42.700;24.170;2023-01-25T02:23:44;94989.22;;;2.41;100.00
23166;BME280;11751;42.700;24.170;2023-01-25T02:26:12;94990.38;;;2.49;100.00
23166;BME280;11751;42.700;24.170;2023-01-25T02:28:44;94990.47;;;2.40;100.00
23166;BME280;11751;42.700;24.170;2023-01-25T02:31:11;94991.16;;;2.35;100.00
23166;BME280;11751;42.700;24.170;2023-01-25T02:33:37;94986.69;;;2.38;100.00
23166;BME280;11751;42.700;24.170;2023-01-25T02:38:36;94988.28;;;2.44;100.00
23166;BME280;11751;42.700;24.170;2023-01-25T02:41:07;94991.97;;;2.21;100.00
23166;BME280;11751;42.700;24.170;2023-01-25T02:43:34;94980.78;;;2.30;100.00
23166;BME280;11751;42.700;24.170;2023-01-25T02:46:12;94981.50;;;2.45;100.00
23166;BME280;11751;42.700;24.170;2023-01-25T02:48:38;94980.88;;;2.36;100.00
23166;BME280;11751;42.700;24.170;2023-01-25T02:51:06;94983.63;;;2.36;100.00
23166;BME280;11751;42.700;24.170;2023-01-25T02:53:32;94991.44;;;2.17;100.00
23166;BME280;11751;42.700;24.170;2023-01-25T02:55:57;94981.91;;;2.18;100.00
23166;BME280;11751;42.700;24.170;2023-01-25T02:58:23;94980.53;;;2.28;100.00
23166;BME280;11751;42.700;24.170;2023-01-25T03:00:48;94986.06;;;2.28;100.00
23166;BME280;11751;42.700;24.170;2023-01-25T03:03:13;94980.84;;;2.16;100.00
23166;BME280;11751;42.700;24.170;2023-01-25T03:05:39;94978.66;;;2.20;100.00
23166;BME280;11751;42.700;24.170;2023-01-25T03:08:04;94982.59;;;2.33;100.00
23166;BME280;11751;42.700;24.170;2023-01-25T03:10:30;94980.63;;;2.34;100.00
23166;BME280;11751;42.700;24.170;2023-01-25T03:12:55;94984.06;;;2.29;100.00
23166;BME280;11751;42.700;24.170;2023-01-25T03:15:20;94985.69;;;2.21;100.00
23166;BME280;11751;42.700;24.170;2023-01-25T03:17:46;94979.91;;;2.39;100.00
23166;BME280;11751;42.700;24.170;2023-01-25T03:20:11;94967.66;;;2.05;100.00
23166;BME280;11751;42.700;24.170;2023-01-25T03:22:37;94977.50;;;2.26;100.00
23166;BME280;11751;42.700;24.170;2023-01-25T03:25:02;94977.91;;;2.19;100.00
23166;BME280;11751;42.700;24.170;2023-01-25T03:27:29;94977.50;;;2.26;100.00
23166;BME280;11751;42.700;24.170;2023-01-25T03:29:55;94981.41;;;2.20;100.00
23166;BME280;11751;42.700;24.170;2023-01-25T03:32:20;94972.97;;;2.09;100.00
23166;BME280;11751;42.700;24.170;2023-01-25T03:34:46;94977.09;;;1.99;100.00
23166;BME280;11751;42.700;24.170;2023-01-25T03:37:11;94971.66;;;2.04;100.00
23166;BME280;11751;42.700;24.170;2023-01-25T03:39:36;94980.28;;;1.92;100.00
23166;BME280;11751;42.700;24.170;2023-01-25T03:42:02;94967.34;;;1.83;100.00
23166;BME280;11751;42.700;24.170;2023-01-25T03:44:27;94977.25;;;1.75;100.00
23166;BME280;11751;42.700;24.170;2023-01-25T03:46:53;94977.34;;;1.81;100.00
23166;BME280;11751;42.700;24.170;2023-01-25T03:49:18;94977.94;;;1.70;100.00
23166;BME280;11751;42.700;24.170;2023-01-25T03:51:44;94974.78;;;1.77;100.00
23166;BME280;11751;42.700;24.170;2023-01-25T03:54:09;94975.44;;;1.72;100.00
23166;BME280;11751;42.700;24.170;2023-01-25T03:56:36;94979.19;;;1.69;100.00
23166;BME280;11751;42.700;24.170;2023-01-25T03:59:01;94969.63;;;1.85;100.00
23166;BME280;11751;42.700;24.170;2023-01-25T04:01:27;94976.84;;;1.82;100.00
23166;BME280;11751;42.700;24.170;2023-01-25T04:03:52;94981.91;;;1.84;100.00
23166;BME280;11751;42.700;24.170;2023-01-25T04:06:18;94985.25;;;1.73;100.00
23166;BME280;11751;42.700;24.170;2023-01-25T04:08:43;94980.88;;;1.67;100.00
23166;BME280;11751;42.700;24.170;2023-01-25T04:11:09;94982.03;;;1.75;100.00
23166;BME280;11751;42.700;24.170;2023-01-25T04:13:36;94984.13;;;1.66;100.00
23166;BME280;11751;42.700;24.170;2023-01-25T04:16:06;94983.06;;;1.77;100.00
23166;BME280;11751;42.700;24.170;2023-01-25T04:18:32;94990.78;;;1.73;100.00
23166;BME280;11751;42.700;24.170;2023-01-25T04:20:58;94992.69;;;1.67;100.00
23166;BME280;11751;42.700;24.170;2023-01-25T04:23:24;94992.31;;;1.60;100.00
23166;BME280;11751;42.700;24.170;2023-01-25T04:25:55;94986.78;;;1.74;100.00
23166;BME280;11751;42.700;24.170;2023-01-25T04:28:21;94985.66;;;1.52;100.00
23166;BME280;11751;42.700;24.170;2023-01-25T04:30:47;94981.69;;;1.39;100.00
23166;BME280;11751;42.700;24.170;2023-01-25T04:33:13;94983.94;;;1.55;100.00
23166;BME280;11751;42.700;24.170;2023-01-25T04:35:38;94995.38;;;1.62;100.00
23166;BME280;11751;42.700;24.170;2023-01-25T04:38:04;94997.75;;;1.55;100.00
23166;BME280;11751;42.700;24.170;2023-01-25T04:40:30;94999.00;;;1.39;100.00
23166;BME280;11751;42.700;24.170;2023-01-25T04:42:55;94998.44;;;1.50;100.00
23166;BME280;11751;42.700;24.170;2023-01-25T04:45:22;94998.44;;;1.50;100.00
23166;BME280;11751;42.700;24.170;2023-01-25T04:47:48;95000.22;;;1.53;100.00
23166;BME280;11751;42.700;24.170;2023-01-25T04:50:14;95000.91;;;1.48;100.00
23166;BME280;11751;42.700;24.170;2023-01-25T04:52:39;94996.72;;;1.38;100.00
23166;BME280;11751;42.700;24.170;2023-01-25T04:55:05;94996.13;;;1.19;100.00
23166;BME280;11751;42.700;24.170;2023-01-25T04:57:30;94994.63;;;1.33;100.00
23166;BME280;11751;42.700;24.170;2023-01-25T04:59:56;95006.13;;;1.46;100.00
23166;BME280;11751;42.700;24.170;2023-01-25T05:02:21;94986.25;;;1.42;100.00
23166;BME280;11751;42.700;24.170;2023-01-25T05:04:46;94993.19;;;1.37;100.00
23166;BME280;11751;42.700;24.170;2023-01-25T05:07:12;94992.44;;;1.37;100.00
23166;BME280;11751;42.700;24.170;2023-01-25T05:09:37;94985.50;;;1.27;100.00
23166;BME280;11751;42.700;24.170;2023-01-25T05:12:03;94989.28;;;1.44;100.00
23166;BME280;11751;42.700;24.170;2023-01-25T05:14:35;94987.22;;;1.39;100.00
23166;BME280;11751;42.700;24.170;2023-01-25T05:17:01;94993.28;;;1.43;100.00
23166;BME280;11751;42.700;24.170;2023-01-25T05:19:26;94984.56;;;1.30;100.00
23166;BME280;11751;42.700;24.170;2023-01-25T05:21:51;94990.06;;;1.30;100.00
23166;BME280;11751;42.700;24.170;2023-01-25T05:24:30;94988.72;;;1.25;100.00
23166;BME280;11751;42.700;24.170;2023-01-25T05:26:57;94982.16;;;1.37;100.00
23166;BME280;11751;42.700;24.170;2023-01-25T05:29:36;94986.81;;;1.31;100.00
23166;BME280;11751;42.700;24.170;2023-01-25T05:32:04;94995.78;;;1.41;100.00
23166;BME280;11751;42.700;24.170;2023-01-25T05:34:30;94995.19;;;1.37;100.00
23166;BME280;11751;42.700;24.170;2023-01-25T05:36:56;94995.59;;;1.30;100.00
23166;BME280;11751;42.700;24.170;2023-01-25T05:39:22;94999.88;;;1.31;100.00
23166;BME280;11751;42.700;24.170;2023-01-25T05:41:47;95008.69;;;1.20;100.00
23166;BME280;11751;42.700;24.170;2023-01-25T05:44:13;95005.75;;;1.24;100.00
23166;BME280;11751;42.700;24.170;2023-01-25T05:46:38;95008.50;;;1.24;100.00
23166;BME280;11751;42.700;24.170;2023-01-25T05:49:04;94998.78;;;1.14;100.00
23166;BME280;11751;42.700;24.170;2023-01-25T05:51:30;95010.59;;;1.29;100.00
23166;BME280;11751;42.700;24.170;2023-01-25T05:53:55;95018.97;;;1.20;100.00
23166;BME280;11751;42.700;24.170;2023-01-25T05:56:21;95018.22;;;1.34;100.00
23166;BME280;11751;42.700;24.170;2023-01-25T05:58:50;95020.97;;;1.34;100.00
23166;BME280;11751;42.700;24.170;2023-01-25T06:01:16;95015.34;;;1.43;100.00
23166;BME280;11751;42.700;24.170;2023-01-25T06:03:41;95017.34;;;1.57;100.00
23166;BME280;11751;42.700;24.170;2023-01-25T06:06:07;95025.34;;;1.55;100.00
23166;BME280;11751;42.700;24.170;2023-01-25T06:08:32;95013.34;;;1.58;100.00
23166;BME280;11751;42.700;24.170;2023-01-25T06:10:57;95012.22;;;1.50;100.00
23166;BME280;11751;42.700;24.170;2023-01-25T06:13:23;95011.16;;;1.47;100.00
23166;BME280;11751;42.700;24.170;2023-01-25T06:15:53;95013.47;;;1.49;100.00
23166;BME280;11751;42.700;24.170;2023-01-25T06:18:19;95015.19;;;1.61;100.00
23166;BME280;11751;42.700;24.170;2023-01-25T06:20:44;95019.28;;;1.51;100.00
23166;BME280;11751;42.700;24.170;2023-01-25T06:23:10;95019.53;;;1.53;100.00
23166;BME280;11751;42.700;24.170;2023-01-25T06:25:35;95024.69;;;1.60;100.00
23166;BME280;11751;42.700;24.170;2023-01-25T06:28:00;95011.94;;;1.48;100.00
23166;BME280;11751;42.700;24.170;2023-01-25T06:30:26;95016.31;;;1.54;100.00
23166;BME280;11751;42.700;24.170;2023-01-25T06:32:51;95018.69;;;1.61;100.00
23166;BME280;11751;42.700;24.170;2023-01-25T06:35:17;95014.50;;;1.37;100.00
23166;BME280;11751;42.700;24.170;2023-01-25T06:37:42;95013.28;;;1.38;100.00
23166;BME280;11751;42.700;24.170;2023-01-25T06:40:08;95011.34;;;1.44;100.00
23166;BME280;11751;42.700;24.170;2023-01-25T06:42:33;95017.06;;;1.55;100.00
23166;BME280;11751;42.700;24.170;2023-01-25T06:44:59;95018.41;;;1.59;100.00
23166;BME280;11751;42.700;24.170;2023-01-25T06:47:24;95010.22;;;1.65;100.00
23166;BME280;11751;42.700;24.170;2023-01-25T06:49:49;95014.78;;;1.67;100.00
23166;BME280;11751;42.700;24.170;2023-01-25T06:52:15;95018.78;;;1.67;100.00
23166;BME280;11751;42.700;24.170;2023-01-25T06:54:40;95025.25;;;1.64;100.00
23166;BME280;11751;42.700;24.170;2023-01-25T06:57:06;95015.53;;;1.68;100.00
23166;BME280;11751;42.700;24.170;2023-01-25T06:59:34;95015.09;;;1.55;100.00
23166;BME280;11751;42.700;24.170;2023-01-25T07:01:59;95014.19;;;1.64;100.00
23166;BME280;11751;42.700;24.170;2023-01-25T07:04:25;95014.41;;;1.60;100.00
23166;BME280;11751;42.700;24.170;2023-01-25T07:06:50;95009.66;;;1.61;100.00
23166;BME280;11751;42.700;24.170;2023-01-25T07:09:16;95011.16;;;1.62;100.00
23166;BME280;11751;42.700;24.170;2023-01-25T07:11:42;95008.88;;;1.60;100.00
23166;BME280;11751;42.700;24.170;2023-01-25T07:14:07;95002.59;;;1.74;100.00
23166;BME280;11751;42.700;24.170;2023-01-25T07:16:33;95006.97;;;1.80;100.00
23166;BME280;11751;42.700;24.170;2023-01-25T07:19:04;95006.38;;;1.76;100.00
23166;BME280;11751;42.700;24.170;2023-01-25T07:21:30;95005.09;;;1.43;100.00
23166;BME280;11751;42.700;24.170;2023-01-25T07:23:59;95010.81;;;1.40;100.00
23166;BME280;11751;42.700;24.170;2023-01-25T07:26:26;95014.31;;;1.40;100.00
23166;BME280;11751;42.700;24.170;2023-01-25T07:28:53;95022.19;;;1.33;100.00
23166;BME280;11751;42.700;24.170;2023-01-25T07:31:19;95022.03;;;1.51;100.00
23166;BME280;11751;42.700;24.170;2023-01-25T07:33:52;95016.31;;;1.40;100.00
23166;BME280;11751;42.700;24.170;2023-01-25T07:36:19;95027.56;;;1.51;100.00
23166;BME280;11751;42.700;24.170;2023-01-25T07:38:45;95032.50;;;1.47;100.00
23166;BME280;11751;42.700;24.170;2023-01-25T07:41:10;95021.84;;;1.54;100.00
23166;BME280;11751;42.700;24.170;2023-01-25T07:43:37;95025.16;;;1.44;100.00
23166;BME280;11751;42.700;24.170;2023-01-25T07:46:05;95028.69;;;1.44;100.00
23166;BME280;11751;42.700;24.170;2023-01-25T07:48:31;95022.19;;;1.47;100.00
23166;BME280;11751;42.700;24.170;2023-01-25T07:51:01;95022.03;;;1.51;100.00
23166;BME280;11751;42.700;24.170;2023-01-25T07:53:39;95030.78;;;1.35;100.00
23166;BME280;11751;42.700;24.170;2023-01-25T07:56:06;95029.25;;;1.34;100.00
23166;BME280;11751;42.700;24.170;2023-01-25T07:58:33;95019.91;;;1.17;100.00
23166;BME280;11751;42.700;24.170;2023-01-25T08:01:08;95024.00;;;1.07;100.00
23166;BME280;11751;42.700;24.170;2023-01-25T08:03:34;95033.59;;;1.11;100.00
23166;BME280;11751;42.700;24.170;2023-01-25T08:05:59;95030.03;;;1.34;100.00
23166;BME280;11751;42.700;24.170;2023-01-25T08:08:25;95031.34;;;1.39;100.00
23166;BME280;11751;42.700;24.170;2023-01-25T08:10:51;95027.16;;;1.29;100.00
23166;BME280;11751;42.700;24.170;2023-01-25T08:13:16;95017.66;;;1.30;100.00
23166;BME280;11751;42.700;24.170;2023-01-25T08:15:42;95028.69;;;1.30;100.00
23166;BME280;11751;42.700;24.170;2023-01-25T08:18:07;95032.88;;;1.40;100.00
23166;BME280;11751;42.700;24.170;2023-01-25T08:20:33;95027.81;;;1.38;100.00
23166;BME280;11751;42.700;24.170;2023-01-25T08:22:58;95022.50;;;1.49;100.00
23166;BME280;11751;42.700;24.170;2023-01-25T08:25:24;95032.88;;;1.40;100.00
23166;BME280;11751;42.700;24.170;2023-01-25T08:27:49;95025.75;;;1.48;100.00
23166;BME280;11751;42.700;24.170;2023-01-25T08:30:16;95034.38;;;1.69;100.00
23166;BME280;11751;42.700;24.170;2023-01-25T08:32:41;95031.53;;;1.50;100.00
23166;BME280;11751;42.700;24.170;2023-01-25T08:35:07;95036.88;;;1.53;100.00
23166;BME280;11751;42.700;24.170;2023-01-25T08:37:33;95038.75;;;1.33;100.00
23166;BME280;11751;42.700;24.170;2023-01-25T08:39:58;95030.56;;;1.53;100.00
23166;BME280;11751;42.700;24.170;2023-01-25T08:42:24;95048.09;;;1.50;100.00
23166;BME280;11751;42.700;24.170;2023-01-25T08:44:49;95036.97;;;1.59;100.00
23166;BME280;11751;42.700;24.170;2023-01-25T08:47:15;95050.75;;;1.44;100.00
23166;BME280;11751;42.700;24.170;2023-01-25T08:49:40;95056.09;;;1.33;100.00
23166;BME280;11751;42.700;24.170;2023-01-25T08:52:06;95049.03;;;1.18;100.00
23166;BME280;11751;42.700;24.170;2023-01-25T08:54:31;95066.72;;;1.26;100.00
23166;BME280;11751;42.700;24.170;2023-01-25T08:56:57;95046.97;;;1.27;100.00
23166;BME280;11751;42.700;24.170;2023-01-25T08:59:22;95050.75;;;1.30;100.00
23166;BME280;11751;42.700;24.170;2023-01-25T09:01:48;95036.47;;;1.17;100.00
23166;BME280;11751;42.700;24.170;2023-01-25T09:04:13;95048.28;;;1.46;100.00
23166;BME280;11751;42.700;24.170;2023-01-25T09:06:39;95049.63;;;1.22;100.00
23166;BME280;11751;42.700;24.170;2023-01-25T09:09:05;95036.66;;;1.28;100.00
23166;BME280;11751;42.700;24.170;2023-01-25T09:11:33;95033.63;;;1.26;100.00
23166;BME280;11751;42.700;24.170;2023-01-25T09:14:01;95028.59;;;1.39;100.00
23166;BME280;11751;42.700;24.170;2023-01-25T09:16:26;95021.16;;;1.59;100.00
23166;BME280;11751;42.700;24.170;2023-01-25T09:18:56;95017.66;;;1.59;100.00
23166;BME280;11751;42.700;24.170;2023-01-25T09:21:23;95009.16;;;1.76;100.00
23166;BME280;11751;42.700;24.170;2023-01-25T09:23:49;95012.50;;;1.66;100.00
23166;BME280;11751;42.700;24.170;2023-01-25T09:26:16;95012.84;;;1.73;100.00
23166;BME280;11751;42.700;24.170;2023-01-25T09:28:45;94998.41;;;1.78;99.66
23166;BME280;11751;42.700;24.170;2023-01-25T09:31:11;95002.44;;;1.97;99.31
23166;BME280;11751;42.700;24.170;2023-01-25T09:33:38;95002.00;;;1.84;98.89
23166;BME280;11751;42.700;24.170;2023-01-25T09:36:04;94982.19;;;1.86;99.08
23166;BME280;11751;42.700;24.170;2023-01-25T09:38:30;94993.41;;;1.82;98.32
23166;BME280;11751;42.700;24.170;2023-01-25T09:46:52;94976.47;;;1.89;99.34
23166;BME280;11751;42.700;24.170;2023-01-25T09:54:28;94966.66;;;1.88;99.26
23166;BME280;11751;42.700;24.170;2023-01-25T09:56:56;94964.09;;;2.19;99.18
23166;BME280;11751;42.700;24.170;2023-01-25T09:59:24;94962.69;;;2.09;99.14
23166;BME280;11751;42.700;24.170;2023-01-25T10:06:46;94939.97;;;2.20;97.67
23166;BME280;11751;42.700;24.170;2023-01-25T10:09:42;94951.38;;;2.07;98.71
23166;BME280;11751;42.700;24.170;2023-01-25T10:12:34;94937.41;;;1.96;99.18
23166;BME280;11751;42.700;24.170;2023-01-25T10:15:00;94945.19;;;1.98;99.16
23166;BME280;11751;42.700;24.170;2023-01-25T10:17:37;94938.00;;;2.20;98.34
23166;BME280;11751;42.700;24.170;2023-01-25T10:20:14;94933.00;;;2.04;98.85
23166;BME280;11751;42.700;24.170;2023-01-25T10:22:53;94931.19;;;2.21;98.80
23166;BME280;11751;42.700;24.170;2023-01-25T10:25:39;94926.38;;;2.36;98.89
23166;BME280;11751;42.700;24.170;2023-01-25T10:28:16;94925.34;;;2.14;99.02
23166;BME280;11751;42.700;24.170;2023-01-25T10:33:17;94910.53;;;2.37;98.19
23166;BME280;11751;42.700;24.170;2023-01-25T10:35:46;94907.91;;;2.28;98.01
23166;BME280;11751;42.700;24.170;2023-01-25T10:38:19;94901.50;;;2.16;98.89
23166;BME280;11751;42.700;24.170;2023-01-25T10:40:54;94904.25;;;2.36;98.74
23166;BME280;11751;42.700;24.170;2023-01-25T10:43:21;94900.53;;;2.39;98.01
23166;BME280;11751;42.700;24.170;2023-01-25T10:45:47;94899.47;;;2.37;97.64
23166;BME280;11751;42.700;24.170;2023-01-25T10:48:19;94887.81;;;2.47;97.60
23166;BME280;11751;42.700;24.170;2023-01-25T10:50:51;94895.69;;;2.34;97.80
23166;BME280;11751;42.700;24.170;2023-01-25T10:53:26;94883.69;;;1.97;98.57
23166;BME280;11751;42.700;24.170;2023-01-25T10:58:35;94879.84;;;2.09;99.62
23166;BME280;11751;42.700;24.170;2023-01-25T11:01:03;94869.66;;;2.21;99.11
23166;BME280;11751;42.700;24.170;2023-01-25T11:03:36;94874.44;;;2.20;98.09
23166;BME280;11751;42.700;24.170;2023-01-25T11:06:02;94875.56;;;2.08;97.66
23166;BME280;11751;42.700;24.170;2023-01-25T11:10:59;94870.84;;;2.14;97.44
23166;BME280;11751;42.700;24.170;2023-01-25T11:13:39;94858.84;;;2.17;97.24
23166;BME280;11751;42.700;24.170;2023-01-25T11:18:52;94854.53;;;2.16;97.65
23166;BME280;11751;42.700;24.170;2023-01-25T11:21:22;94859.38;;;2.21;97.77
23166;BME280;11751;42.700;24.170;2023-01-25T11:24:03;94854.69;;;2.27;97.31
23166;BME280;11751;42.700;24.170;2023-01-25T11:26:30;94855.22;;;2.11;97.35
23166;BME280;11751;42.700;24.170;2023-01-25T11:29:18;94866.28;;;2.11;98.78
23166;BME280;11751;42.700;24.170;2023-01-25T11:31:52;94855.31;;;1.97;98.05
23166;BME280;11751;42.700;24.170;2023-01-25T11:34:20;94857.50;;;1.73;98.35
23166;BME280;11751;42.700;24.170;2023-01-25T11:40:22;94860.44;;;2.04;98.48
23166;BME280;11751;42.700;24.170;2023-01-25T11:50:49;94844.13;;;1.86;97.85
23166;BME280;11751;42.700;24.170;2023-01-25T11:56:33;94839.38;;;1.86;98.85
23166;BME280;11751;42.700;24.170;2023-01-25T12:13:59;94812.91;;;1.80;97.08
23166;BME280;11751;42.700;24.170;2023-01-25T12:19:26;94808.41;;;2.02;96.95
23166;BME280;11751;42.700;24.170;2023-01-25T12:29:55;94800.41;;;2.04;97.98
23166;BME280;11751;42.700;24.170;2023-01-25T12:32:36;94792.53;;;2.17;98.18
23166;BME280;11751;42.700;24.170;2023-01-25T12:35:14;94801.47;;;2.32;97.86
23166;BME280;11751;42.700;24.170;2023-01-25T12:37:44;94793.78;;;2.16;98.00
23166;BME280;11751;42.700;24.170;2023-01-25T12:43:15;94781.13;;;2.10;96.73
23166;BME280;11751;42.700;24.170;2023-01-25T12:45:44;94779.97;;;2.16;97.42
23166;BME280;11751;42.700;24.170;2023-01-25T12:55:57;94756.22;;;2.04;97.54
23166;BME280;11751;42.700;24.170;2023-01-25T12:58:45;94759.47;;;2.03;97.52
23166;BME280;11751;42.700;24.170;2023-01-25T13:01:26;94770.47;;;1.97;97.72
23166;BME280;11751;42.700;24.170;2023-01-25T13:07:02;94766.63;;;1.89;98.02
23166;BME280;11751;42.700;24.170;2023-01-25T13:12:15;94765.84;;;1.89;98.34
23166;BME280;11751;42.700;24.170;2023-01-25T13:14:41;94764.53;;;1.84;98.99
23166;BME280;11751;42.700;24.170;2023-01-25T13:19:53;94770.19;;;1.95;98.41
23166;BME280;11751;42.700;24.170;2023-01-25T13:25:20;94764.41;;;1.73;99.17
23166;BME280;11751;42.700;24.170;2023-01-25T13:27:45;94759.56;;;1.88;98.83
23166;BME280;11751;42.700;24.170;2023-01-25T13:30:29;94758.84;;;1.93;99.08
23166;BME280;11751;42.700;24.170;2023-01-25T13:32:59;94754.56;;;1.92;99.19
23166;BME280;11751;42.700;24.170;2023-01-25T13:35:43;94764.00;;;1.80;98.65
23166;BME280;11751;42.700;24.170;2023-01-25T13:38:30;94756.25;;;1.84;99.41
23166;BME280;11751;42.700;24.170;2023-01-25T13:41:05;94754.00;;;1.63;99.14
23166;BME280;11751;42.700;24.170;2023-01-25T13:43:36;94755.72;;;1.61;99.20
23166;BME280;11751;42.700;24.170;2023-01-25T13:46:03;94742.59;;;1.56;99.86
23166;BME280;11751;42.700;24.170;2023-01-25T13:48:33;94742.75;;;1.67;99.71
23166;BME280;11751;42.700;24.170;2023-01-25T13:51:09;94748.94;;;1.62;100.00
23166;BME280;11751;42.700;24.170;2023-01-25T13:53:38;94755.38;;;1.53;100.00
23166;BME280;11751;42.700;24.170;2023-01-25T13:56:04;94757.84;;;1.51;100.00
23166;BME280;11751;42.700;24.170;2023-01-25T13:58:48;94759.88;;;1.51;100.00
23166;BME280;11751;42.700;24.170;2023-01-25T14:01:16;94764.97;;;1.38;100.00
23166;BME280;11751;42.700;24.170;2023-01-25T14:03:44;94760.69;;;1.37;100.00
23166;BME280;11751;42.700;24.170;2023-01-25T14:06:33;94768.41;;;1.33;100.00
23166;BME280;11751;42.700;24.170;2023-01-25T14:09:05;94763.78;;;1.44;100.00
23166;BME280;11751;42.700;24.170;2023-01-25T14:11:42;94771.66;;;1.51;100.00
23166;BME280;11751;42.700;24.170;2023-01-25T14:14:26;94777.31;;;1.42;100.00
23166;BME280;11751;42.700;24.170;2023-01-25T14:19:39;94773.53;;;1.40;100.00
23166;BME280;11751;42.700;24.170;2023-01-25T14:22:41;94783.69;;;1.34;100.00
23166;BME280;11751;42.700;24.170;2023-01-25T14:25:19;94784.94;;;1.33;100.00
23166;BME280;11751;42.700;24.170;2023-01-25T14:30:20;94781.50;;;1.38;100.00
23166;BME280;11751;42.700;24.170;2023-01-25T14:32:47;94783.03;;;1.39;100.00
23166;BME280;11751;42.700;24.170;2023-01-25T14:35:36;94778.97;;;1.34;100.00
23166;BME280;11751;42.700;24.170;2023-01-25T14:38:20;94776.81;;;1.44;100.00
23166;BME280;11751;42.700;24.170;2023-01-25T14:40:46;94784.44;;;1.49;100.00
23166;BME280;11751;42.700;24.170;2023-01-25T14:43:13;94770.75;;;1.20;100.00
23166;BME280;11751;42.700;24.170;2023-01-25T14:45:39;94773.91;;;1.33;100.00
23166;BME280;11751;42.700;24.170;2023-01-25T14:48:04;94763.69;;;1.19;100.00